Weather History for Visalia, CA

Change the Weather History Date:

Monday, September 30, 2013

  Actual Average Record
Temperature  
Mean Temperature 66 °F -  
Max Temperature 82 °F 85 °F 99 °F (1933)
Min Temperature 51 °F 57 °F 39 °F (1950)
Cooling Degree Days 2    
Growing Degree Days 16 (Base 50)    
Moisture  
Dew Point 51 °F    
Average Humidity 57    
Maximum Humidity 82    
Minimum Humidity 35    
Precipitation  
Precipitation 0.00 in - - ()
Sea Level Pressure  
Sea Level Pressure 29.99 in    
Wind  
Wind Speed 5 mph (NW)    
Max Wind Speed 10 mph    
Max Gust Speed -    
Visibility 10 miles    
Events      
Averages and records for this station are not official NWS values.
T = Trace of Precipitation, MM = Missing Value Source: NWS Daily Summary

Daily Weather History Graph

Daily Weather History Graph

Search for Another Location

Airport:

Trip Planner

Search our weather history database for the weather conditions in past years. The results will help you decide how hot, cold, wet, or windy it might be!

Date:

Astronomy

Sep. 30, 2013 Rise Set
Actual Time 6:52 AM PDT 6:42 PM PDT
Civil Twilight 6:26 AM PDT 7:07 PM PDT
Nautical Twilight 5:56 AM PDT 7:37 PM PDT
Astronomical Twilight 5:26 AM PDT 8:07 PM PDT
Moon 2:40 AM PDT (9/30) 4:09 PM PDT (9/30)
Length of Visible Light 12h 41m
Length of Day
11h 49m
Waning Crescent, 18% of the Moon is Illuminated
Sep 30
Waning Crescent
Oct 4
New
Oct 11
First Quarter
Oct 18
Full
Oct 26
Last Quarter

Hourly Weather History & Observations

Time (PDT) Temp. Heat Index Dew Point Humidity Pressure Visibility Wind Dir Wind Speed Gust Speed Precip Events Conditions
12:15 AM 64.4 °F - 46.4 °F 52% 30.02 in 10.0 mi North 5.8 mph - N/A   Clear
12:35 AM 64.4 °F - 46.4 °F 52% 30.02 in 10.0 mi North 5.8 mph - N/A   Clear
12:55 AM 62.6 °F - 48.2 °F 59% 30.02 in 10.0 mi North 5.8 mph - N/A   Clear
1:15 AM 62.6 °F - 46.4 °F 55% 30.02 in 10.0 mi NNW 4.6 mph - N/A   Clear
1:35 AM 60.8 °F - 46.4 °F 59% 30.02 in 10.0 mi North 3.5 mph - N/A   Clear
1:55 AM 60.8 °F - 48.2 °F 63% 30.02 in 10.0 mi North 5.8 mph - N/A   Clear
2:15 AM 60.8 °F - 48.2 °F 63% 30.02 in 10.0 mi NW 5.8 mph - N/A   Clear
2:35 AM 60.8 °F - 48.2 °F 63% 30.02 in 10.0 mi NW 8.1 mph - N/A   Clear
2:55 AM 59.0 °F - 48.2 °F 67% 30.02 in 10.0 mi NW 8.1 mph - N/A   Clear
3:15 AM 59.0 °F - 48.2 °F 67% 30.01 in 10.0 mi NNW 9.2 mph - N/A   Clear
3:35 AM 59.0 °F - 48.2 °F 67% 30.01 in 10.0 mi NW 8.1 mph - N/A   Clear
3:55 AM 59.0 °F - 50.0 °F 72% 30.02 in 10.0 mi NW 8.1 mph - N/A   Clear
4:15 AM 57.2 °F - 50.0 °F 77% 30.02 in 10.0 mi NW 6.9 mph - N/A   Clear
4:35 AM 57.2 °F - 48.2 °F 72% 30.02 in 10.0 mi NW 5.8 mph - N/A   Clear
4:55 AM 57.2 °F - 48.2 °F 72% 30.03 in 10.0 mi NW 5.8 mph - N/A   Clear
5:15 AM 55.4 °F - 48.2 °F 77% 30.02 in 10.0 mi NW 5.8 mph - N/A   Clear
5:35 AM 55.4 °F - 48.2 °F 77% 30.02 in 10.0 mi Calm Calm - N/A   Clear
5:55 AM 55.4 °F - 46.4 °F 72% 30.03 in 10.0 mi Calm Calm - N/A   Clear
6:15 AM 55.4 °F - 48.2 °F 77% 30.03 in 10.0 mi NW 4.6 mph - N/A   Clear
6:35 AM 53.6 °F - 48.2 °F 82% 30.04 in 10.0 mi Calm Calm - N/A   Clear
6:55 AM 51.8 °F - 46.4 °F 82% 30.04 in 10.0 mi Calm Calm - N/A   Clear
7:15 AM 55.4 °F - 48.2 °F 77% 30.05 in 10.0 mi West 4.6 mph - N/A   Clear
7:35 AM 55.4 °F - 48.2 °F 77% 30.06 in 8.0 mi Calm Calm - N/A   Clear
7:55 AM 55.4 °F - 50.0 °F 82% 30.06 in 10.0 mi Calm Calm - N/A   Clear
8:15 AM 57.2 °F - 51.8 °F 82% 30.07 in 10.0 mi Calm Calm - N/A   Clear
8:35 AM 59.0 °F - 51.8 °F 77% 30.07 in 9.0 mi Calm Calm - N/A   Clear
8:55 AM 60.8 °F - 53.6 °F 77% 30.07 in 10.0 mi Calm Calm - N/A   Clear
9:15 AM 60.8 °F - 53.6 °F 77% 30.07 in 10.0 mi Calm Calm - N/A   Clear
9:35 AM 62.6 °F - 53.6 °F 72% 30.07 in 10.0 mi South 4.6 mph - N/A   Clear
9:55 AM 64.4 °F - 53.6 °F 68% 30.07 in 10.0 mi SSW 4.6 mph - N/A   Clear
10:15 AM 64.4 °F - 53.6 °F 68% 30.07 in 10.0 mi Calm Calm - N/A   Clear
10:35 AM 66.2 °F - 55.4 °F 68% 30.06 in 10.0 mi Calm Calm - N/A   Clear
10:55 AM 68.0 °F - 55.4 °F 64% 30.06 in 10.0 mi Calm Calm - N/A   Clear
11:15 AM 71.6 °F - 55.4 °F 57% 30.05 in 10.0 mi Calm Calm - N/A   Clear
11:35 AM 71.6 °F - 53.6 °F 53% 30.05 in 10.0 mi North 4.6 mph - N/A   Clear
11:55 AM 73.4 °F - 53.6 °F 50% 30.05 in 10.0 mi NNE 5.8 mph - N/A   Clear
12:15 PM 75.2 °F - 55.4 °F 50% 30.03 in 10.0 mi NNW 6.9 mph - N/A   Clear
12:35 PM 75.2 °F - 55.4 °F 50% 30.03 in 10.0 mi NW 5.8 mph - N/A   Clear
12:55 PM 75.2 °F - 55.4 °F 50% 30.01 in 10.0 mi NW 6.9 mph - N/A   Clear
1:15 PM 78.8 °F - 55.4 °F 44% 30.01 in 10.0 mi WNW 3.5 mph - N/A   Clear
1:35 PM 78.8 °F - 53.6 °F 42% 29.99 in 10.0 mi Calm Calm - N/A   Clear
1:55 PM 78.8 °F - 55.4 °F 44% 29.98 in 10.0 mi North 5.8 mph - N/A   Clear
2:15 PM 78.8 °F - 53.6 °F 42% 29.97 in 10.0 mi WNW 6.9 mph - N/A   Clear
2:35 PM 80.6 °F 80.3 °F 53.6 °F 39% 29.96 in 10.0 mi NW 6.9 mph - N/A   Clear
2:55 PM 80.6 °F - 51.8 °F 37% 29.95 in 10.0 mi WNW 8.1 mph - N/A   Clear
3:15 PM 82.4 °F 81.4 °F 53.6 °F 37% 29.94 in 10.0 mi WNW 5.8 mph - N/A   Clear
3:35 PM 82.4 °F - 51.8 °F 35% 29.93 in 10.0 mi WNW 4.6 mph - N/A   Clear
3:55 PM 82.4 °F - 51.8 °F 35% 29.93 in 10.0 mi North 5.8 mph - N/A   Clear
4:15 PM 82.4 °F 81.4 °F 53.6 °F 37% 29.92 in 10.0 mi NW 3.5 mph - N/A   Clear
4:35 PM 82.4 °F - 51.8 °F 35% 29.92 in 10.0 mi NNW 6.9 mph - N/A   Clear
4:55 PM 82.4 °F 81.4 °F 53.6 °F 37% 29.92 in 10.0 mi WNW 6.9 mph - N/A   Clear
5:15 PM 80.6 °F 80.3 °F 53.6 °F 39% 29.91 in 10.0 mi WNW 9.2 mph - N/A   Clear
5:35 PM 80.6 °F 80.3 °F 53.6 °F 39% 29.91 in 10.0 mi WNW 10.4 mph - N/A   Clear
5:55 PM 80.6 °F - 51.8 °F 37% 29.91 in 10.0 mi WNW 6.9 mph - N/A   Clear
6:15 PM 78.8 °F - 51.8 °F 39% 29.91 in 10.0 mi WNW 6.9 mph - N/A   Clear
6:35 PM 75.2 °F - 51.8 °F 44% 29.90 in 10.0 mi WNW 5.8 mph - N/A   Clear
6:55 PM 75.2 °F - 51.8 °F 44% 29.90 in 10.0 mi WNW 5.8 mph - N/A   Clear
7:15 PM 73.4 °F - 51.8 °F 47% 29.90 in 10.0 mi WNW 6.9 mph - N/A   Clear
7:35 PM 71.6 °F - 51.8 °F 50% 29.90 in 10.0 mi WNW 6.9 mph - N/A   Clear
7:55 PM 71.6 °F - 51.8 °F 50% 29.91 in 10.0 mi NW 6.9 mph - N/A   Clear
8:15 PM 71.6 °F - 51.8 °F 50% 29.92 in 10.0 mi NW 6.9 mph - N/A   Clear
8:35 PM 69.8 °F - 51.8 °F 53% 29.92 in 10.0 mi NW 6.9 mph - N/A   Clear
8:55 PM 69.8 °F - 50.0 °F 49% 29.92 in 10.0 mi NW 8.1 mph - N/A   Clear
9:15 PM 68.0 °F - 50.0 °F 52% 29.93 in 10.0 mi NW 6.9 mph - N/A   Clear
9:35 PM 69.8 °F - 50.0 °F 49% 29.93 in 10.0 mi NW 6.9 mph - N/A   Clear
9:55 PM 68.0 °F - 48.2 °F 49% 29.93 in 10.0 mi NW 6.9 mph - N/A   Clear
10:15 PM 68.0 °F - 50.0 °F 52% 29.93 in 10.0 mi NW 6.9 mph - N/A   Clear
10:35 PM 66.2 °F - 50.0 °F 56% 29.93 in 10.0 mi NW 6.9 mph - N/A   Clear
10:55 PM 64.4 °F - 50.0 °F 59% 29.94 in 10.0 mi NW 6.9 mph - N/A   Clear
11:15 PM 64.4 °F - 50.0 °F 59% 29.93 in 10.0 mi NW 6.9 mph - N/A   Clear
11:35 PM 64.4 °F - 51.8 °F 64% 29.93 in 10.0 mi NW 6.9 mph - N/A   Clear
11:55 PM 64.4 °F - 50.0 °F 59% 29.93 in 10.0 mi NW 5.8 mph - N/A   Clear